createdAt,value
2022-08-21T00:00:21.833Z,100.00
2022-08-21T00:02:52.140Z,100.00
2022-08-21T00:05:20.008Z,100.00
2022-08-21T00:07:46.804Z,100.00
2022-08-21T00:10:14.578Z,100.00
2022-08-21T00:12:42.157Z,100.00
2022-08-21T00:15:12.067Z,100.00
2022-08-21T00:17:41.945Z,100.00
2022-08-21T00:20:10.888Z,100.00
2022-08-21T00:22:38.088Z,100.00
2022-08-21T00:25:06.812Z,100.00
2022-08-21T00:27:34.767Z,100.00
2022-08-21T00:30:02.066Z,100.00
2022-08-21T00:32:29.483Z,100.00
2022-08-21T00:34:56.730Z,100.00
2022-08-21T00:37:24.410Z,100.00
2022-08-21T00:39:51.410Z,100.00
2022-08-21T00:42:18.642Z,100.00
2022-08-21T00:44:47.881Z,100.00
2022-08-21T00:47:17.511Z,100.00
2022-08-21T00:49:44.425Z,100.00
2022-08-21T00:52:16.534Z,100.00
2022-08-21T00:54:46.590Z,100.00
2022-08-21T00:57:20.127Z,100.00
2022-08-21T00:59:50.622Z,100.00
2022-08-21T01:02:17.953Z,100.00
2022-08-21T01:04:44.908Z,100.00
2022-08-21T01:07:11.928Z,100.00
2022-08-21T01:09:38.807Z,100.00
2022-08-21T01:12:06.105Z,100.00
2022-08-21T01:14:33.555Z,100.00
2022-08-21T01:17:04.079Z,100.00
2022-08-21T01:19:31.347Z,100.00
2022-08-21T01:21:58.227Z,100.00
2022-08-21T01:24:25.012Z,100.00
2022-08-21T01:26:52.378Z,100.00
2022-08-21T01:29:59.188Z,100.00
2022-08-21T01:32:26.721Z,100.00
2022-08-21T01:34:54.224Z,100.00
2022-08-21T01:37:22.551Z,100.00
2022-08-21T01:39:50.058Z,100.00
2022-08-21T01:42:17.383Z,100.00
2022-08-21T01:44:44.765Z,100.00
2022-08-21T01:47:14.129Z,100.00
2022-08-21T01:49:41.627Z,100.00
2022-08-21T01:52:09.626Z,100.00
2022-08-21T01:54:37.327Z,100.00
2022-08-21T01:57:04.685Z,100.00
2022-08-21T01:59:32.076Z,100.00
2022-08-21T02:01:58.884Z,100.00
2022-08-21T02:04:25.816Z,100.00
2022-08-21T02:06:52.836Z,100.00
2022-08-21T02:09:20.020Z,100.00
2022-08-21T02:11:47.184Z,100.00
2022-08-21T02:14:16.149Z,100.00
2022-08-21T02:17:08.702Z,100.00
2022-08-21T02:19:40.314Z,100.00
2022-08-21T02:22:10.662Z,100.00
2022-08-21T02:24:50.158Z,100.00
2022-08-21T02:27:26.140Z,100.00
2022-08-21T02:29:55.738Z,100.00
2022-08-21T02:32:22.569Z,100.00
2022-08-21T02:34:49.914Z,100.00
2022-08-21T02:37:17.211Z,100.00
2022-08-21T02:39:44.074Z,100.00
2022-08-21T02:42:10.936Z,100.00
2022-08-21T02:44:37.794Z,100.00
2022-08-21T02:47:04.888Z,100.00
2022-08-21T02:49:31.695Z,100.00
2022-08-21T02:52:00.163Z,100.00
2022-08-21T02:54:26.988Z,100.00
2022-08-21T02:56:54.600Z,100.00
2022-08-21T02:59:21.373Z,100.00
2022-08-21T03:01:48.458Z,100.00
2022-08-21T03:04:15.493Z,100.00
2022-08-21T03:06:42.300Z,100.00
2022-08-21T03:09:09.107Z,100.00
2022-08-21T03:11:37.924Z,100.00
2022-08-21T03:14:06.298Z,100.00
2022-08-21T03:16:35.034Z,100.00
2022-08-21T03:19:02.394Z,100.00
2022-08-21T03:21:29.726Z,100.00
2022-08-21T03:23:56.587Z,100.00
2022-08-21T03:26:23.368Z,100.00
2022-08-21T03:28:51.645Z,100.00
2022-08-21T03:31:18.644Z,100.00
2022-08-21T03:33:45.618Z,100.00
2022-08-21T03:36:12.389Z,100.00
2022-08-21T03:38:39.364Z,100.00
2022-08-21T03:41:08.136Z,100.00
2022-08-21T03:43:36.020Z,100.00
2022-08-21T03:46:04.978Z,100.00
2022-08-21T03:48:32.288Z,100.00
2022-08-21T03:50:59.621Z,100.00
2022-08-21T03:53:26.829Z,100.00
2022-08-21T03:55:54.063Z,100.00
2022-08-21T03:58:25.287Z,100.00
2022-08-21T04:00:56.489Z,100.00
2022-08-21T04:03:23.569Z,100.00
2022-08-21T04:05:50.456Z,100.00
2022-08-21T04:08:21.266Z,100.00
2022-08-21T04:10:50.720Z,100.00
2022-08-21T04:13:17.885Z,100.00
2022-08-21T04:15:44.724Z,100.00
2022-08-21T04:18:12.029Z,100.00
2022-08-21T04:20:40.422Z,100.00
2022-08-21T04:23:08.003Z,100.00
2022-08-21T04:25:34.898Z,100.00
2022-08-21T04:28:02.814Z,100.00
2022-08-21T04:30:29.743Z,100.00
2022-08-21T04:32:58.303Z,100.00
2022-08-21T04:35:27.195Z,100.00
2022-08-21T04:37:54.204Z,100.00
2022-08-21T04:40:23.363Z,100.00
2022-08-21T04:42:55.773Z,100.00
2022-08-21T04:45:26.889Z,100.00
2022-08-21T04:47:56.644Z,100.00
2022-08-21T04:50:28.694Z,100.00
2022-08-21T04:53:06.389Z,100.00
2022-08-21T04:55:33.474Z,100.00
2022-08-21T04:58:00.923Z,100.00
2022-08-21T05:00:27.959Z,100.00
2022-08-21T05:03:00.167Z,100.00
2022-08-21T05:05:30.153Z,100.00
2022-08-21T05:08:00.163Z,100.00
2022-08-21T05:10:27.383Z,100.00
2022-08-21T05:12:55.186Z,100.00
2022-08-21T05:15:22.630Z,100.00
2022-08-21T05:17:52.574Z,100.00
2022-08-21T05:20:29.149Z,100.00
2022-08-21T05:22:56.328Z,100.00
2022-08-21T05:25:23.813Z,100.00
2022-08-21T05:27:52.197Z,100.00
2022-08-21T05:30:19.977Z,100.00
2022-08-21T05:32:48.469Z,100.00
2022-08-21T05:35:15.272Z,100.00
2022-08-21T05:37:42.042Z,100.00
2022-08-21T05:40:21.226Z,100.00
2022-08-21T05:42:54.933Z,100.00
2022-08-21T05:45:26.930Z,100.00
2022-08-21T05:48:16.862Z,100.00
2022-08-21T05:50:45.328Z,100.00
2022-08-21T05:53:12.762Z,100.00
2022-08-21T05:55:44.790Z,100.00
2022-08-21T05:58:19.212Z,100.00
2022-08-21T06:00:48.444Z,100.00
2022-08-21T06:03:25.094Z,100.00
2022-08-21T06:05:53.726Z,100.00
2022-08-21T06:08:22.366Z,100.00
2022-08-21T06:10:51.046Z,100.00
2022-08-21T06:13:19.779Z,100.00
2022-08-21T06:15:46.981Z,100.00
2022-08-21T06:18:14.002Z,100.00
2022-08-21T06:20:40.830Z,100.00
2022-08-21T06:23:07.719Z,100.00
2022-08-21T06:25:35.104Z,100.00
2022-08-21T06:28:03.551Z,100.00
2022-08-21T06:30:30.462Z,100.00
2022-08-21T06:32:57.329Z,100.00
2022-08-21T06:35:25.550Z,100.00
2022-08-21T06:37:52.511Z,100.00
2022-08-21T06:40:19.467Z,100.00
2022-08-21T06:42:46.353Z,100.00
2022-08-21T06:45:16.842Z,100.00
2022-08-21T06:47:43.592Z,100.00
2022-08-21T06:50:10.719Z,100.00
2022-08-21T06:52:38.593Z,100.00
2022-08-21T06:55:08.607Z,100.00
2022-08-21T06:57:35.936Z,100.00
2022-08-21T07:00:06.803Z,100.00
2022-08-21T07:02:34.583Z,100.00
2022-08-21T07:05:02.178Z,100.00
2022-08-21T07:07:46.414Z,100.00
2022-08-21T07:10:21.621Z,100.00
2022-08-21T07:13:00.777Z,100.00
2022-08-21T07:15:31.975Z,100.00
2022-08-21T07:18:00.657Z,100.00
2022-08-21T07:20:29.067Z,100.00
2022-08-21T07:22:58.656Z,100.00
2022-08-21T07:25:25.896Z,100.00
2022-08-21T07:27:52.842Z,100.00
2022-08-21T07:30:19.847Z,100.00
2022-08-21T07:32:46.697Z,100.00
2022-08-21T07:35:13.664Z,100.00
2022-08-21T07:37:40.606Z,100.00
2022-08-21T07:40:08.513Z,100.00
2022-08-21T07:42:35.324Z,100.00
2022-08-21T07:45:02.132Z,100.00
2022-08-21T07:47:41.296Z,100.00
2022-08-21T07:50:12.283Z,100.00
2022-08-21T07:52:41.275Z,100.00
2022-08-21T07:55:10.941Z,100.00
2022-08-21T07:57:38.189Z,100.00
2022-08-21T08:00:09.274Z,100.00
2022-08-21T08:02:41.793Z,100.00
2022-08-21T08:05:12.077Z,100.00
2022-08-21T08:07:39.613Z,100.00
2022-08-21T08:10:08.002Z,100.00
2022-08-21T08:12:40.182Z,100.00
2022-08-21T08:15:09.768Z,100.00
2022-08-21T08:17:38.721Z,100.00
2022-08-21T08:20:10.027Z,100.00
2022-08-21T08:22:38.640Z,100.00
2022-08-21T08:25:09.444Z,100.00
2022-08-21T08:27:36.736Z,100.00
2022-08-21T08:30:05.194Z,100.00
2022-08-21T08:32:32.569Z,100.00
2022-08-21T08:34:59.348Z,100.00
2022-08-21T08:37:30.968Z,100.00
2022-08-21T08:40:03.471Z,100.00
2022-08-21T08:42:35.664Z,100.00
2022-08-21T08:45:10.259Z,100.00
2022-08-21T08:47:43.070Z,100.00
2022-08-21T08:50:17.961Z,100.00
2022-08-21T08:52:52.113Z,100.00
2022-08-21T08:55:37.036Z,100.00
2022-08-21T08:58:04.606Z,100.00
2022-08-21T09:00:32.581Z,100.00
2022-08-21T09:03:02.545Z,100.00
2022-08-21T09:05:47.650Z,100.00
2022-08-21T09:08:21.477Z,100.00
2022-08-21T09:11:21.152Z,100.00
2022-08-21T09:13:50.925Z,100.00
2022-08-21T09:16:26.767Z,100.00
2022-08-21T09:19:08.708Z,100.00
2022-08-21T09:21:59.607Z,100.00
2022-08-21T09:24:37.402Z,100.00
2022-08-21T09:27:10.064Z,100.00
2022-08-21T09:29:43.640Z,100.00
2022-08-21T09:32:22.302Z,100.00
2022-08-21T09:35:09.310Z,100.00
2022-08-21T09:37:50.493Z,100.00
2022-08-21T09:40:43.130Z,100.00
2022-08-21T09:43:12.896Z,100.00
2022-08-21T09:45:42.838Z,100.00
2022-08-21T09:48:32.984Z,100.00
2022-08-21T09:51:33.810Z,100.00
2022-08-21T09:54:07.019Z,100.00
2022-08-21T09:56:56.021Z,100.00
2022-08-21T09:59:37.175Z,100.00
2022-08-21T10:02:32.570Z,97.70
2022-08-21T10:05:08.909Z,96.24
2022-08-21T10:07:38.758Z,98.76
2022-08-21T10:10:18.587Z,99.66
2022-08-21T10:13:05.066Z,100.00
2022-08-21T10:15:53.507Z,100.00
2022-08-21T10:18:42.412Z,100.00
2022-08-21T10:21:21.197Z,90.35
2022-08-21T10:24:00.130Z,79.45
2022-08-21T10:26:38.385Z,76.16
2022-08-21T10:29:39.855Z,77.14
2022-08-21T10:32:22.523Z,76.83
2022-08-21T10:35:11.642Z,84.55
2022-08-21T10:38:01.704Z,82.09
2022-08-21T10:40:36.253Z,72.98
2022-08-21T10:43:05.832Z,71.35
2022-08-21T10:46:14.022Z,72.20
2022-08-21T10:48:51.492Z,79.98
2022-08-21T10:51:29.003Z,81.41
2022-08-21T10:54:12.590Z,74.94
2022-08-21T10:56:42.193Z,79.26
2022-08-21T10:59:29.517Z,73.12
2022-08-21T11:02:10.011Z,87.53
2022-08-21T11:05:14.566Z,70.19
2022-08-21T11:07:55.964Z,74.31
2022-08-21T11:10:51.240Z,69.59
2022-08-21T11:13:44.435Z,65.22
2022-08-21T11:16:41.314Z,68.46
2022-08-21T11:19:29.006Z,79.88
2022-08-21T11:22:18.509Z,97.99
2022-08-21T11:25:07.341Z,100.00
2022-08-21T11:27:52.367Z,100.00
2022-08-21T11:30:19.694Z,100.00
2022-08-21T11:33:06.656Z,100.00
2022-08-21T11:35:55.238Z,100.00
2022-08-21T11:38:29.267Z,100.00
2022-08-21T11:41:18.223Z,100.00
2022-08-21T11:43:54.674Z,100.00
2022-08-21T11:46:46.315Z,100.00
2022-08-21T11:49:19.226Z,100.00
2022-08-21T11:52:09.027Z,100.00
2022-08-21T11:54:44.351Z,100.00
2022-08-21T11:57:23.147Z,100.00
2022-08-21T12:00:07.904Z,100.00
2022-08-21T12:02:56.380Z,100.00
2022-08-21T12:05:37.235Z,100.00
2022-08-21T12:08:14.489Z,100.00
2022-08-21T12:10:59.482Z,100.00
2022-08-21T12:13:40.648Z,100.00
2022-08-21T12:16:33.463Z,100.00
2022-08-21T12:19:23.543Z,100.00
2022-08-21T12:21:52.676Z,100.00
2022-08-21T12:24:29.448Z,100.00
2022-08-21T12:26:56.164Z,100.00
2022-08-21T12:29:25.238Z,100.00
2022-08-21T12:32:23.465Z,100.00
2022-08-21T12:35:23.880Z,100.00
2022-08-21T12:38:16.822Z,85.71
2022-08-21T12:40:57.645Z,83.48
2022-08-21T12:43:34.023Z,90.23
2022-08-21T12:46:01.835Z,96.40
2022-08-21T12:48:40.192Z,100.00
2022-08-21T12:51:14.053Z,100.00
2022-08-21T12:53:49.073Z,100.00
2022-08-21T12:56:19.221Z,100.00
2022-08-21T12:58:51.444Z,100.00
2022-08-21T13:01:50.232Z,100.00
2022-08-21T13:04:21.328Z,100.00
2022-08-21T13:06:52.667Z,100.00
2022-08-21T13:09:25.009Z,100.00
2022-08-21T13:11:52.861Z,100.00
2022-08-21T13:14:45.345Z,100.00
2022-08-21T13:17:23.428Z,100.00
2022-08-21T13:20:01.304Z,100.00
2022-08-21T13:22:33.829Z,100.00
2022-08-21T13:25:06.655Z,100.00
2022-08-21T13:27:35.127Z,100.00
2022-08-21T13:30:18.227Z,100.00
2022-08-21T13:32:48.445Z,100.00
2022-08-21T13:35:22.101Z,100.00
2022-08-21T13:37:52.709Z,100.00
2022-08-21T13:40:43.798Z,100.00
2022-08-21T13:43:21.329Z,100.00
2022-08-21T13:45:51.029Z,100.00
2022-08-21T13:48:18.289Z,100.00
2022-08-21T13:50:45.880Z,100.00
2022-08-21T13:53:33.028Z,100.00
2022-08-21T13:56:01.507Z,100.00
2022-08-21T13:58:46.899Z,100.00
2022-08-21T14:01:27.697Z,100.00
2022-08-21T14:04:01.941Z,100.00
2022-08-21T14:06:36.343Z,100.00
2022-08-21T14:09:11.285Z,100.00
2022-08-21T14:11:39.545Z,100.00
2022-08-21T14:14:23.231Z,100.00
2022-08-21T14:17:24.415Z,97.68
2022-08-21T14:19:49.529Z,100.00
2022-08-21T14:22:29.189Z,100.00
2022-08-21T14:25:31.435Z,100.00
2022-08-21T14:28:03.543Z,100.00
2022-08-21T14:30:38.906Z,100.00
2022-08-21T14:33:11.149Z,100.00
2022-08-21T14:35:38.333Z,100.00
2022-08-21T14:38:13.536Z,100.00
2022-08-21T14:40:41.461Z,100.00
2022-08-21T14:43:09.283Z,100.00
2022-08-21T14:45:37.619Z,100.00
2022-08-21T14:48:05.453Z,100.00
2022-08-21T14:50:32.310Z,100.00
2022-08-21T14:52:59.273Z,100.00
2022-08-21T14:55:27.356Z,100.00
2022-08-21T14:57:56.901Z,100.00
2022-08-21T15:00:27.150Z,100.00
2022-08-21T15:03:03.248Z,100.00
2022-08-21T15:05:33.712Z,100.00
2022-08-21T15:08:01.074Z,100.00
2022-08-21T15:10:28.449Z,100.00
2022-08-21T15:12:55.333Z,100.00
2022-08-21T15:15:22.466Z,100.00
2022-08-21T15:17:49.298Z,100.00
2022-08-21T15:20:16.259Z,100.00
2022-08-21T15:22:47.542Z,100.00
2022-08-21T15:25:14.837Z,100.00
2022-08-21T15:27:41.639Z,100.00
2022-08-21T15:30:08.939Z,100.00
2022-08-21T15:32:35.789Z,100.00
2022-08-21T15:35:03.478Z,100.00
2022-08-21T15:37:30.540Z,100.00
2022-08-21T15:39:57.461Z,100.00
2022-08-21T15:42:27.715Z,100.00
2022-08-21T15:44:56.957Z,100.00
2022-08-21T15:47:28.487Z,100.00
2022-08-21T15:49:55.337Z,100.00
2022-08-21T15:52:23.311Z,100.00
2022-08-21T15:54:50.804Z,100.00
2022-08-21T15:57:20.616Z,100.00
2022-08-21T15:59:51.074Z,100.00
2022-08-21T16:02:22.819Z,100.00
2022-08-21T16:04:49.921Z,100.00
2022-08-21T16:07:16.998Z,100.00
2022-08-21T16:09:44.091Z,100.00
2022-08-21T16:12:15.105Z,100.00
2022-08-21T16:14:41.939Z,100.00
2022-08-21T16:17:09.709Z,100.00
2022-08-21T16:19:37.617Z,100.00
2022-08-21T16:22:04.893Z,100.00
2022-08-21T16:24:31.766Z,100.00
2022-08-21T16:26:58.594Z,100.00
2022-08-21T16:29:30.790Z,100.00
2022-08-21T16:31:57.585Z,100.00
2022-08-21T16:34:25.009Z,100.00
2022-08-21T16:36:51.820Z,100.00
2022-08-21T16:39:18.849Z,100.00
2022-08-21T16:41:45.829Z,100.00
2022-08-21T16:44:12.836Z,100.00
2022-08-21T16:46:41.629Z,100.00
2022-08-21T16:49:10.089Z,100.00
2022-08-21T16:51:40.142Z,100.00
2022-08-21T16:54:06.973Z,100.00
2022-08-21T16:56:35.225Z,100.00
2022-08-21T16:59:05.275Z,100.00
2022-08-21T17:01:34.253Z,100.00
2022-08-21T17:04:01.233Z,100.00
2022-08-21T17:06:29.225Z,100.00
2022-08-21T17:08:57.057Z,100.00
2022-08-21T17:11:37.803Z,100.00
2022-08-21T17:14:22.069Z,100.00
2022-08-21T17:16:52.194Z,100.00
2022-08-21T17:19:20.049Z,100.00
2022-08-21T17:21:46.961Z,100.00
2022-08-21T17:24:15.584Z,100.00
2022-08-21T17:26:44.030Z,100.00
2022-08-21T17:29:14.584Z,100.00
2022-08-21T17:31:43.916Z,100.00
2022-08-21T17:34:11.579Z,100.00
2022-08-21T17:36:38.457Z,100.00
2022-08-21T17:39:05.516Z,100.00
2022-08-21T17:41:34.270Z,100.00
2022-08-21T17:44:06.284Z,100.00
2022-08-21T17:46:33.159Z,100.00
2022-08-21T17:48:59.933Z,100.00
2022-08-21T17:51:28.368Z,100.00
2022-08-21T17:53:55.141Z,100.00
2022-08-21T17:56:22.543Z,100.00
2022-08-21T17:58:51.760Z,100.00
2022-08-21T18:01:19.620Z,100.00
2022-08-21T18:03:47.533Z,100.00
2022-08-21T18:06:17.975Z,100.00
2022-08-21T18:08:46.169Z,100.00
2022-08-21T18:11:23.421Z,100.00
2022-08-21T18:13:52.961Z,100.00
2022-08-21T18:16:20.580Z,100.00
2022-08-21T18:18:49.282Z,100.00
2022-08-21T18:21:16.151Z,100.00
2022-08-21T18:23:45.264Z,100.00
2022-08-21T18:26:28.630Z,100.00
2022-08-21T18:29:00.329Z,100.00
2022-08-21T18:31:32.321Z,100.00
2022-08-21T18:34:02.642Z,100.00
2022-08-21T18:36:31.135Z,100.00
2022-08-21T18:39:13.480Z,100.00
2022-08-21T18:41:46.378Z,100.00
2022-08-21T18:44:15.087Z,100.00
2022-08-21T18:46:46.596Z,100.00
2022-08-21T18:49:13.416Z,100.00
2022-08-21T18:51:44.802Z,100.00
2022-08-21T18:54:13.022Z,100.00
2022-08-21T18:56:40.890Z,100.00
2022-08-21T18:59:08.160Z,100.00
2022-08-21T19:01:35.636Z,100.00
2022-08-21T19:04:02.992Z,100.00
2022-08-21T19:06:29.841Z,100.00
2022-08-21T19:08:56.740Z,100.00
2022-08-21T19:11:25.315Z,100.00
2022-08-21T19:13:53.607Z,100.00
2022-08-21T19:16:22.352Z,100.00
2022-08-21T19:18:49.643Z,100.00
2022-08-21T19:21:16.615Z,100.00
2022-08-21T19:23:48.164Z,100.00
2022-08-21T19:26:22.134Z,100.00
2022-08-21T19:28:52.544Z,100.00
2022-08-21T19:31:30.647Z,100.00
2022-08-21T19:34:22.121Z,100.00
2022-08-21T19:36:49.396Z,100.00
2022-08-21T19:39:18.363Z,100.00
2022-08-21T19:41:50.629Z,100.00
2022-08-21T19:44:21.468Z,100.00
2022-08-21T19:46:51.105Z,100.00
2022-08-21T19:49:22.157Z,100.00
2022-08-21T19:51:49.550Z,100.00
2022-08-21T19:54:29.218Z,100.00
2022-08-21T19:56:59.160Z,100.00
2022-08-21T19:59:31.117Z,100.00
2022-08-21T20:01:57.939Z,100.00
2022-08-21T20:04:24.917Z,100.00
2022-08-21T20:06:54.799Z,100.00
2022-08-21T20:09:21.997Z,100.00
2022-08-21T20:11:52.190Z,100.00
2022-08-21T20:14:26.636Z,100.00
2022-08-21T20:17:05.982Z,100.00
2022-08-21T20:19:32.919Z,100.00
2022-08-21T20:22:00.611Z,100.00
2022-08-21T20:24:28.465Z,100.00
2022-08-21T20:26:56.144Z,100.00
2022-08-21T20:29:31.469Z,100.00
2022-08-21T20:32:04.526Z,100.00
2022-08-21T20:34:32.201Z,100.00
2022-08-21T20:37:01.460Z,100.00
2022-08-21T20:39:28.652Z,100.00
2022-08-21T20:41:56.623Z,100.00
2022-08-21T20:44:27.787Z,100.00
2022-08-21T20:46:55.157Z,100.00
2022-08-21T20:49:27.770Z,100.00
2022-08-21T20:51:57.072Z,100.00
2022-08-21T20:54:31.854Z,100.00
2022-08-21T20:57:01.664Z,100.00
2022-08-21T20:59:35.226Z,100.00
2022-08-21T21:02:28.153Z,100.00
2022-08-21T21:04:59.237Z,100.00
2022-08-21T21:07:37.413Z,100.00
2022-08-21T21:10:10.927Z,100.00
2022-08-21T21:12:47.838Z,100.00
2022-08-21T21:15:27.894Z,100.00
2022-08-21T21:18:04.432Z,100.00
2022-08-21T21:20:45.859Z,100.00
2022-08-21T21:23:40.272Z,100.00
2022-08-21T21:26:15.225Z,100.00
2022-08-21T21:28:53.723Z,100.00
2022-08-21T21:31:20.566Z,100.00
2022-08-21T21:33:48.184Z,100.00
2022-08-21T21:36:24.428Z,100.00
2022-08-21T21:39:08.110Z,100.00
2022-08-21T21:41:37.479Z,100.00
2022-08-21T21:44:34.562Z,100.00
2022-08-21T21:47:16.806Z,100.00
2022-08-21T21:50:21.115Z,100.00
2022-08-21T21:53:05.205Z,100.00
2022-08-21T21:55:58.276Z,100.00
2022-08-21T21:58:44.153Z,100.00
2022-08-21T22:01:21.801Z,100.00
2022-08-21T22:04:17.054Z,100.00
2022-08-21T22:06:56.438Z,100.00
2022-08-21T22:09:43.060Z,100.00
2022-08-21T22:12:31.298Z,100.00
2022-08-21T22:14:58.061Z,100.00
2022-08-21T22:17:34.234Z,100.00
2022-08-21T22:20:07.689Z,100.00
2022-08-21T22:22:42.342Z,100.00
2022-08-21T22:25:21.320Z,100.00
2022-08-21T22:27:56.875Z,100.00
2022-08-21T22:30:45.363Z,100.00
2022-08-21T22:33:20.060Z,100.00
2022-08-21T22:35:51.607Z,100.00
2022-08-21T22:38:27.828Z,100.00
2022-08-21T22:44:24.157Z,100.00
2022-08-21T22:46:58.928Z,100.00
2022-08-21T22:49:29.387Z,100.00
2022-08-21T22:52:10.706Z,100.00
2022-08-21T22:54:40.919Z,100.00
2022-08-21T22:57:47.725Z,100.00
2022-08-21T23:00:37.097Z,100.00
2022-08-21T23:03:03.921Z,100.00
2022-08-21T23:05:30.886Z,100.00
2022-08-21T23:08:23.917Z,100.00
2022-08-21T23:10:58.033Z,100.00
2022-08-21T23:13:24.897Z,100.00
2022-08-21T23:16:17.801Z,100.00
2022-08-21T23:19:03.813Z,100.00
2022-08-21T23:22:13.644Z,100.00
2022-08-21T23:24:50.254Z,100.00
2022-08-21T23:27:35.971Z,100.00
2022-08-21T23:30:12.288Z,100.00
2022-08-21T23:32:44.611Z,100.00
2022-08-21T23:35:51.194Z,100.00
2022-08-21T23:38:53.532Z,100.00
2022-08-21T23:41:37.294Z,100.00
2022-08-21T23:44:07.080Z,100.00
2022-08-21T23:46:46.022Z,100.00
2022-08-21T23:49:31.261Z,100.00
2022-08-21T23:52:08.142Z,100.00
2022-08-21T23:54:56.641Z,100.00
2022-08-21T23:57:42.001Z,100.00
